sensor_id;sensor_type;location;lat;lon;timestamp;P1;durP1;ratioP1;P2;durP2;ratioP2
62353;SDS011;48391;49.184;2.418;2023-08-17T05:29:49;0.50;;;0.50;;
62353;SDS011;48391;49.184;2.418;2023-08-17T05:32:15;0.75;;;0.60;;
62353;SDS011;48391;49.184;2.418;2023-08-17T05:34:41;0.40;;;0.40;;
62353;SDS011;48391;49.184;2.418;2023-08-17T05:37:07;0.70;;;0.70;;
62353;SDS011;48391;49.184;2.418;2023-08-17T05:39:33;0.68;;;0.68;;
62353;SDS011;48391;49.184;2.418;2023-08-17T05:41:59;0.40;;;0.40;;
62353;SDS011;48391;49.184;2.418;2023-08-17T05:44:25;0.57;;;0.43;;
62353;SDS011;48391;49.184;2.418;2023-08-17T05:46:51;1.33;;;1.23;;
62353;SDS011;48391;49.184;2.418;2023-08-17T05:49:17;1.20;;;1.10;;
62353;SDS011;48391;49.184;2.418;2023-08-17T05:51:43;1.33;;;1.23;;
62353;SDS011;48391;49.184;2.418;2023-08-17T05:54:09;1.40;;;1.30;;
62353;SDS011;48391;49.184;2.418;2023-08-17T05:56:35;1.27;;;1.15;;
62353;SDS011;48391;49.184;2.418;2023-08-17T05:59:02;2.67;;;1.88;;
62353;SDS011;48391;49.184;2.418;2023-08-17T06:01:28;0.98;;;0.93;;
62353;SDS011;48391;49.184;2.418;2023-08-17T06:03:54;1.88;;;1.77;;
62353;SDS011;48391;49.184;2.418;2023-08-17T06:06:20;3.55;;;2.08;;
62353;SDS011;48391;49.184;2.418;2023-08-17T06:08:46;2.05;;;1.95;;
62353;SDS011;48391;49.184;2.418;2023-08-17T06:11:12;2.53;;;2.33;;
62353;SDS011;48391;49.184;2.418;2023-08-17T06:13:38;2.33;;;2.15;;
62353;SDS011;48391;49.184;2.418;2023-08-17T06:16:04;1.40;;;1.30;;
62353;SDS011;48391;49.184;2.418;2023-08-17T06:18:30;1.42;;;1.33;;
62353;SDS011;48391;49.184;2.418;2023-08-17T06:20:56;2.03;;;1.70;;
62353;SDS011;48391;49.184;2.418;2023-08-17T06:23:23;1.35;;;1.20;;
62353;SDS011;48391;49.184;2.418;2023-08-17T06:25:50;2.53;;;1.30;;
62353;SDS011;48391;49.184;2.418;2023-08-17T06:28:16;1.80;;;1.58;;
62353;SDS011;48391;49.184;2.418;2023-08-17T06:30:42;1.40;;;1.30;;
62353;SDS011;48391;49.184;2.418;2023-08-17T06:33:08;3.75;;;2.10;;
62353;SDS011;48391;49.184;2.418;2023-08-17T06:35:34;3.35;;;3.05;;
62353;SDS011;48391;49.184;2.418;2023-08-17T06:38:00;3.22;;;2.80;;
62353;SDS011;48391;49.184;2.418;2023-08-17T06:40:26;3.70;;;3.40;;
62353;SDS011;48391;49.184;2.418;2023-08-17T06:42:52;3.95;;;3.65;;
62353;SDS011;48391;49.184;2.418;2023-08-17T06:45:19;6.32;;;2.65;;
62353;SDS011;48391;49.184;2.418;2023-08-17T06:47:47;3.95;;;3.03;;
62353;SDS011;48391;49.184;2.418;2023-08-17T06:50:13;3.25;;;3.03;;
62353;SDS011;48391;49.184;2.418;2023-08-17T06:52:40;4.82;;;4.43;;
62353;SDS011;48391;49.184;2.418;2023-08-17T06:55:06;4.22;;;3.38;;
62353;SDS011;48391;49.184;2.418;2023-08-17T06:57:32;3.55;;;3.22;;
62353;SDS011;48391;49.184;2.418;2023-08-17T06:59:58;4.63;;;3.30;;
62353;SDS011;48391;49.184;2.418;2023-08-17T07:02:24;3.80;;;2.75;;
62353;SDS011;48391;49.184;2.418;2023-08-17T07:04:50;5.07;;;4.00;;
62353;SDS011;48391;49.184;2.418;2023-08-17T07:07:16;4.20;;;3.33;;
62353;SDS011;48391;49.184;2.418;2023-08-17T07:09:42;3.40;;;3.10;;
62353;SDS011;48391;49.184;2.418;2023-08-17T07:12:08;4.55;;;3.80;;
62353;SDS011;48391;49.184;2.418;2023-08-17T07:14:34;7.03;;;5.82;;
62353;SDS011;48391;49.184;2.418;2023-08-17T07:17:00;5.13;;;4.63;;
62353;SDS011;48391;49.184;2.418;2023-08-17T07:19:26;4.40;;;3.40;;
62353;SDS011;48391;49.184;2.418;2023-08-17T07:21:52;5.50;;;4.95;;
62353;SDS011;48391;49.184;2.418;2023-08-17T07:24:19;4.10;;;3.72;;
62353;SDS011;48391;49.184;2.418;2023-08-17T07:26:45;4.68;;;3.33;;
62353;SDS011;48391;49.184;2.418;2023-08-17T07:29:11;4.82;;;4.13;;
62353;SDS011;48391;49.184;2.418;2023-08-17T07:31:40;6.50;;;3.88;;
62353;SDS011;48391;49.184;2.418;2023-08-17T07:34:06;4.03;;;3.63;;
62353;SDS011;48391;49.184;2.418;2023-08-17T07:36:33;3.95;;;3.63;;
62353;SDS011;48391;49.184;2.418;2023-08-17T07:38:59;5.05;;;4.22;;
62353;SDS011;48391;49.184;2.418;2023-08-17T07:41:25;4.07;;;3.50;;
62353;SDS011;48391;49.184;2.418;2023-08-17T07:43:52;5.30;;;4.10;;
62353;SDS011;48391;49.184;2.418;2023-08-17T07:46:18;4.45;;;4.05;;
62353;SDS011;48391;49.184;2.418;2023-08-17T07:48:44;4.43;;;4.00;;
62353;SDS011;48391;49.184;2.418;2023-08-17T07:51:10;8.40;;;6.05;;
62353;SDS011;48391;49.184;2.418;2023-08-17T07:53:36;3.72;;;3.42;;
62353;SDS011;48391;49.184;2.418;2023-08-17T07:56:02;5.07;;;4.68;;
62353;SDS011;48391;49.184;2.418;2023-08-17T07:58:28;5.13;;;4.63;;
62353;SDS011;48391;49.184;2.418;2023-08-17T08:00:54;6.75;;;5.70;;
62353;SDS011;48391;49.184;2.418;2023-08-17T08:03:20;4.00;;;3.70;;
62353;SDS011;48391;49.184;2.418;2023-08-17T08:05:46;4.80;;;4.15;;
62353;SDS011;48391;49.184;2.418;2023-08-17T08:08:12;3.63;;;3.33;;
62353;SDS011;48391;49.184;2.418;2023-08-17T08:10:39;3.10;;;2.90;;
62353;SDS011;48391;49.184;2.418;2023-08-17T08:13:05;5.63;;;3.55;;
62353;SDS011;48391;49.184;2.418;2023-08-17T08:15:32;3.70;;;3.40;;
62353;SDS011;48391;49.184;2.418;2023-08-17T08:17:58;4.78;;;4.43;;
62353;SDS011;48391;49.184;2.418;2023-08-17T08:20:25;3.42;;;3.15;;
62353;SDS011;48391;49.184;2.418;2023-08-17T08:22:51;4.43;;;4.03;;
62353;SDS011;48391;49.184;2.418;2023-08-17T08:25:17;5.72;;;4.20;;
62353;SDS011;48391;49.184;2.418;2023-08-17T08:27:43;7.18;;;5.85;;
62353;SDS011;48391;49.184;2.418;2023-08-17T08:32:45;4.20;;;3.80;;
62353;SDS011;48391;49.184;2.418;2023-08-17T08:35:11;5.32;;;4.82;;
62353;SDS011;48391;49.184;2.418;2023-08-17T08:37:37;8.32;;;4.45;;
62353;SDS011;48391;49.184;2.418;2023-08-17T08:40:03;7.05;;;5.15;;
62353;SDS011;48391;49.184;2.418;2023-08-17T08:42:29;5.22;;;4.72;;
62353;SDS011;48391;49.184;2.418;2023-08-17T08:44:55;4.90;;;4.22;;
62353;SDS011;48391;49.184;2.418;2023-08-17T08:47:21;4.82;;;4.40;;
62353;SDS011;48391;49.184;2.418;2023-08-17T08:49:58;5.15;;;4.65;;
62353;SDS011;48391;49.184;2.418;2023-08-17T08:52:34;6.82;;;5.65;;
62353;SDS011;48391;49.184;2.418;2023-08-17T08:57:59;5.07;;;4.65;;
62353;SDS011;48391;49.184;2.418;2023-08-17T09:00:26;7.30;;;5.82;;
62353;SDS011;48391;49.184;2.418;2023-08-17T09:02:54;7.22;;;6.53;;
62353;SDS011;48391;49.184;2.418;2023-08-17T09:05:23;5.90;;;4.72;;
62353;SDS011;48391;49.184;2.418;2023-08-17T09:08:08;4.13;;;3.83;;
62353;SDS011;48391;49.184;2.418;2023-08-17T09:13:36;5.10;;;4.70;;
62353;SDS011;48391;49.184;2.418;2023-08-17T09:16:02;4.57;;;4.22;;
62353;SDS011;48391;49.184;2.418;2023-08-17T09:18:28;5.38;;;4.80;;
62353;SDS011;48391;49.184;2.418;2023-08-17T09:20:54;5.43;;;4.85;;
62353;SDS011;48391;49.184;2.418;2023-08-17T09:23:21;7.65;;;6.40;;
62353;SDS011;48391;49.184;2.418;2023-08-17T09:25:48;5.75;;;5.15;;
62353;SDS011;48391;49.184;2.418;2023-08-17T09:28:17;5.45;;;4.70;;
62353;SDS011;48391;49.184;2.418;2023-08-17T09:31:02;10.10;;;6.93;;
62353;SDS011;48391;49.184;2.418;2023-08-17T09:33:31;6.78;;;5.50;;
62353;SDS011;48391;49.184;2.418;2023-08-17T09:35:58;5.15;;;4.68;;
62353;SDS011;48391;49.184;2.418;2023-08-17T09:38:25;5.70;;;5.05;;
62353;SDS011;48391;49.184;2.418;2023-08-17T09:40:51;6.18;;;4.90;;
62353;SDS011;48391;49.184;2.418;2023-08-17T09:43:18;5.50;;;5.00;;
62353;SDS011;48391;49.184;2.418;2023-08-17T09:45:45;4.63;;;4.22;;
62353;SDS011;48391;49.184;2.418;2023-08-17T09:48:16;4.60;;;4.22;;
62353;SDS011;48391;49.184;2.418;2023-08-17T09:50:46;4.50;;;4.18;;
62353;SDS011;48391;49.184;2.418;2023-08-17T09:53:16;5.53;;;5.03;;
62353;SDS011;48391;49.184;2.418;2023-08-17T09:55:42;3.70;;;3.40;;
62353;SDS011;48391;49.184;2.418;2023-08-17T09:58:08;4.20;;;3.90;;
62353;SDS011;48391;49.184;2.418;2023-08-17T10:00:35;5.68;;;5.18;;
62353;SDS011;48391;49.184;2.418;2023-08-17T10:03:02;5.95;;;5.45;;
62353;SDS011;48391;49.184;2.418;2023-08-17T10:05:28;4.63;;;4.32;;
62353;SDS011;48391;49.184;2.418;2023-08-17T10:07:56;3.92;;;3.63;;
62353;SDS011;48391;49.184;2.418;2023-08-17T10:10:26;3.65;;;3.35;;
62353;SDS011;48391;49.184;2.418;2023-08-17T10:15:25;5.05;;;4.55;;
62353;SDS011;48391;49.184;2.418;2023-08-17T10:17:57;4.03;;;3.45;;
62353;SDS011;48391;49.184;2.418;2023-08-17T10:20:25;3.93;;;3.63;;
62353;SDS011;48391;49.184;2.418;2023-08-17T10:22:53;4.20;;;3.80;;
62353;SDS011;48391;49.184;2.418;2023-08-17T10:25:24;4.78;;;4.38;;
62353;SDS011;48391;49.184;2.418;2023-08-17T10:27:52;4.10;;;3.80;;
62353;SDS011;48391;49.184;2.418;2023-08-17T10:30:19;3.63;;;3.33;;
62353;SDS011;48391;49.184;2.418;2023-08-17T10:32:45;3.90;;;3.63;;
62353;SDS011;48391;49.184;2.418;2023-08-17T10:35:12;3.15;;;2.95;;
62353;SDS011;48391;49.184;2.418;2023-08-17T10:37:38;3.20;;;3.00;;
62353;SDS011;48391;49.184;2.418;2023-08-17T10:40:05;2.80;;;2.65;;
62353;SDS011;48391;49.184;2.418;2023-08-17T10:42:35;3.03;;;2.83;;
62353;SDS011;48391;49.184;2.418;2023-08-17T10:45:03;4.40;;;4.00;;
62353;SDS011;48391;49.184;2.418;2023-08-17T10:47:48;3.28;;;3.08;;
62353;SDS011;48391;49.184;2.418;2023-08-17T10:50:21;3.55;;;3.25;;
62353;SDS011;48391;49.184;2.418;2023-08-17T10:52:48;3.72;;;3.53;;
62353;SDS011;48391;49.184;2.418;2023-08-17T10:55:14;2.92;;;2.72;;
62353;SDS011;48391;49.184;2.418;2023-08-17T10:57:41;2.88;;;2.67;;
62353;SDS011;48391;49.184;2.418;2023-08-17T11:00:14;3.78;;;3.35;;
62353;SDS011;48391;49.184;2.418;2023-08-17T11:02:41;4.18;;;3.88;;
62353;SDS011;48391;49.184;2.418;2023-08-17T11:05:08;3.60;;;3.33;;
62353;SDS011;48391;49.184;2.418;2023-08-17T11:07:41;5.57;;;4.93;;
62353;SDS011;48391;49.184;2.418;2023-08-17T11:10:49;3.22;;;3.03;;
62353;SDS011;48391;49.184;2.418;2023-08-17T11:12:57;4.57;;;3.58;;
62353;SDS011;48391;49.184;2.418;2023-08-17T11:15:34;4.57;;;4.28;;
62353;SDS011;48391;49.184;2.418;2023-08-17T11:18:03;3.63;;;3.33;;
62353;SDS011;48391;49.184;2.418;2023-08-17T11:20:29;4.47;;;4.18;;
62353;SDS011;48391;49.184;2.418;2023-08-17T11:22:55;4.18;;;3.88;;
62353;SDS011;48391;49.184;2.418;2023-08-17T11:25:23;3.95;;;3.65;;
62353;SDS011;48391;49.184;2.418;2023-08-17T11:27:49;4.15;;;3.85;;
62353;SDS011;48391;49.184;2.418;2023-08-17T11:30:15;4.40;;;4.00;;
62353;SDS011;48391;49.184;2.418;2023-08-17T11:32:41;5.57;;;5.00;;
62353;SDS011;48391;49.184;2.418;2023-08-17T11:35:08;4.50;;;4.13;;
62353;SDS011;48391;49.184;2.418;2023-08-17T11:37:34;3.72;;;3.45;;
62353;SDS011;48391;49.184;2.418;2023-08-17T11:40:00;3.85;;;3.53;;
62353;SDS011;48391;49.184;2.418;2023-08-17T11:42:26;3.85;;;3.40;;
62353;SDS011;48391;49.184;2.418;2023-08-17T11:44:52;3.67;;;3.45;;
62353;SDS011;48391;49.184;2.418;2023-08-17T11:47:18;3.78;;;3.25;;
62353;SDS011;48391;49.184;2.418;2023-08-17T11:49:47;3.67;;;3.47;;
62353;SDS011;48391;49.184;2.418;2023-08-17T11:52:14;3.65;;;3.35;;
62353;SDS011;48391;49.184;2.418;2023-08-17T11:54:41;5.20;;;4.70;;
62353;SDS011;48391;49.184;2.418;2023-08-17T11:57:07;5.07;;;4.57;;
62353;SDS011;48391;49.184;2.418;2023-08-17T11:59:33;3.00;;;2.80;;
62353;SDS011;48391;49.184;2.418;2023-08-17T12:02:00;4.03;;;3.72;;
62353;SDS011;48391;49.184;2.418;2023-08-17T12:04:26;3.58;;;3.28;;
62353;SDS011;48391;49.184;2.418;2023-08-17T12:06:52;3.60;;;3.30;;
62353;SDS011;48391;49.184;2.418;2023-08-17T12:09:18;3.88;;;3.58;;
62353;SDS011;48391;49.184;2.418;2023-08-17T12:11:44;4.22;;;3.75;;
62353;SDS011;48391;49.184;2.418;2023-08-17T12:14:11;2.90;;;2.70;;
62353;SDS011;48391;49.184;2.418;2023-08-17T12:16:47;3.47;;;3.28;;
62353;SDS011;48391;49.184;2.418;2023-08-17T12:19:13;3.30;;;3.00;;
62353;SDS011;48391;49.184;2.418;2023-08-17T12:21:42;2.88;;;2.67;;
62353;SDS011;48391;49.184;2.418;2023-08-17T12:24:09;2.88;;;2.65;;
62353;SDS011;48391;49.184;2.418;2023-08-17T12:26:40;3.38;;;3.10;;
62353;SDS011;48391;49.184;2.418;2023-08-17T12:29:08;3.72;;;3.42;;
62353;SDS011;48391;49.184;2.418;2023-08-17T12:31:34;2.63;;;2.47;;
62353;SDS011;48391;49.184;2.418;2023-08-17T12:34:00;3.08;;;2.88;;
62353;SDS011;48391;49.184;2.418;2023-08-17T12:36:26;2.35;;;2.17;;
62353;SDS011;48391;49.184;2.418;2023-08-17T12:38:52;3.78;;;2.92;;
62353;SDS011;48391;49.184;2.418;2023-08-17T12:41:18;2.90;;;2.70;;
62353;SDS011;48391;49.184;2.418;2023-08-17T12:43:44;2.75;;;2.38;;
62353;SDS011;48391;49.184;2.418;2023-08-17T12:46:10;2.40;;;2.30;;
62353;SDS011;48391;49.184;2.418;2023-08-17T12:48:36;3.53;;;3.22;;
62353;SDS011;48391;49.184;2.418;2023-08-17T12:51:02;3.03;;;2.83;;
62353;SDS011;48391;49.184;2.418;2023-08-17T12:53:29;2.85;;;2.70;;
62353;SDS011;48391;49.184;2.418;2023-08-17T12:55:56;2.83;;;2.65;;
62353;SDS011;48391;49.184;2.418;2023-08-17T12:58:23;2.95;;;2.75;;
62353;SDS011;48391;49.184;2.418;2023-08-17T13:00:49;3.00;;;2.80;;
62353;SDS011;48391;49.184;2.418;2023-08-17T13:03:18;3.08;;;2.85;;
62353;SDS011;48391;49.184;2.418;2023-08-17T13:05:44;2.58;;;2.47;;
62353;SDS011;48391;49.184;2.418;2023-08-17T13:08:10;2.42;;;2.30;;
62353;SDS011;48391;49.184;2.418;2023-08-17T13:10:36;2.50;;;2.30;;
62353;SDS011;48391;49.184;2.418;2023-08-17T13:13:02;2.95;;;2.75;;
62353;SDS011;48391;49.184;2.418;2023-08-17T13:15:29;2.58;;;2.38;;
62353;SDS011;48391;49.184;2.418;2023-08-17T13:17:55;2.70;;;2.53;;
62353;SDS011;48391;49.184;2.418;2023-08-17T13:20:21;2.60;;;2.50;;
62353;SDS011;48391;49.184;2.418;2023-08-17T13:22:47;2.00;;;1.90;;
62353;SDS011;48391;49.184;2.418;2023-08-17T13:25:13;2.45;;;2.35;;
62353;SDS011;48391;49.184;2.418;2023-08-17T13:27:39;3.33;;;3.13;;
62353;SDS011;48391;49.184;2.418;2023-08-17T13:30:05;2.88;;;2.67;;
62353;SDS011;48391;49.184;2.418;2023-08-17T13:32:31;2.45;;;2.25;;
62353;SDS011;48391;49.184;2.418;2023-08-17T13:34:57;3.42;;;3.13;;
62353;SDS011;48391;49.184;2.418;2023-08-17T13:37:23;3.05;;;2.78;;
62353;SDS011;48391;49.184;2.418;2023-08-17T13:39:49;4.18;;;2.55;;
62353;SDS011;48391;49.184;2.418;2023-08-17T13:42:15;4.10;;;3.05;;
62353;SDS011;48391;49.184;2.418;2023-08-17T13:44:41;2.78;;;2.63;;
62353;SDS011;48391;49.184;2.418;2023-08-17T13:47:07;2.97;;;2.78;;
62353;SDS011;48391;49.184;2.418;2023-08-17T13:49:33;3.33;;;3.13;;
62353;SDS011;48391;49.184;2.418;2023-08-17T13:51:59;2.83;;;2.63;;
62353;SDS011;48391;49.184;2.418;2023-08-17T13:54:25;2.40;;;2.20;;
62353;SDS011;48391;49.184;2.418;2023-08-17T13:56:51;2.10;;;2.00;;
62353;SDS011;48391;49.184;2.418;2023-08-17T13:59:17;2.47;;;2.28;;
62353;SDS011;48391;49.184;2.418;2023-08-17T14:01:43;2.70;;;2.45;;
62353;SDS011;48391;49.184;2.418;2023-08-17T14:04:09;2.92;;;2.83;;
62353;SDS011;48391;49.184;2.418;2023-08-17T14:06:39;3.03;;;2.83;;
62353;SDS011;48391;49.184;2.418;2023-08-17T14:09:05;3.03;;;2.83;;
62353;SDS011;48391;49.184;2.418;2023-08-17T14:11:32;2.90;;;2.72;;
62353;SDS011;48391;49.184;2.418;2023-08-17T14:13:58;3.22;;;3.03;;
62353;SDS011;48391;49.184;2.418;2023-08-17T14:16:24;2.97;;;2.78;;
62353;SDS011;48391;49.184;2.418;2023-08-17T14:18:50;2.05;;;1.95;;
62353;SDS011;48391;49.184;2.418;2023-08-17T14:21:16;2.95;;;2.75;;
62353;SDS011;48391;49.184;2.418;2023-08-17T14:23:42;2.20;;;2.10;;
62353;SDS011;48391;49.184;2.418;2023-08-17T14:26:09;2.40;;;2.30;;
62353;SDS011;48391;49.184;2.418;2023-08-17T14:28:35;2.55;;;2.45;;
62353;SDS011;48391;49.184;2.418;2023-08-17T14:31:01;3.30;;;3.10;;
62353;SDS011;48391;49.184;2.418;2023-08-17T14:33:27;3.40;;;3.20;;
62353;SDS011;48391;49.184;2.418;2023-08-17T14:35:53;3.50;;;3.20;;
62353;SDS011;48391;49.184;2.418;2023-08-17T14:38:19;3.33;;;3.03;;
62353;SDS011;48391;49.184;2.418;2023-08-17T14:40:46;2.92;;;2.72;;
62353;SDS011;48391;49.184;2.418;2023-08-17T14:43:13;2.97;;;2.78;;
62353;SDS011;48391;49.184;2.418;2023-08-17T14:45:39;2.60;;;2.50;;
62353;SDS011;48391;49.184;2.418;2023-08-17T14:48:06;2.30;;;2.20;;
62353;SDS011;48391;49.184;2.418;2023-08-17T14:50:32;2.13;;;1.80;;
62353;SDS011;48391;49.184;2.418;2023-08-17T14:52:59;2.53;;;2.42;;
62353;SDS011;48391;49.184;2.418;2023-08-17T14:55:27;2.10;;;2.00;;
62353;SDS011;48391;49.184;2.418;2023-08-17T14:57:53;2.55;;;2.35;;
62353;SDS011;48391;49.184;2.418;2023-08-17T15:00:19;2.50;;;2.40;;
62353;SDS011;48391;49.184;2.418;2023-08-17T15:02:45;2.20;;;2.10;;
62353;SDS011;48391;49.184;2.418;2023-08-17T15:05:11;2.50;;;2.38;;
62353;SDS011;48391;49.184;2.418;2023-08-17T15:07:37;2.00;;;1.90;;
62353;SDS011;48391;49.184;2.418;2023-08-17T15:10:03;2.40;;;2.30;;
62353;SDS011;48391;49.184;2.418;2023-08-17T15:12:29;2.20;;;2.10;;
62353;SDS011;48391;49.184;2.418;2023-08-17T15:14:55;3.03;;;2.83;;
62353;SDS011;48391;49.184;2.418;2023-08-17T15:17:21;2.05;;;1.95;;
62353;SDS011;48391;49.184;2.418;2023-08-17T15:19:47;2.22;;;2.13;;
62353;SDS011;48391;49.184;2.418;2023-08-17T15:22:13;2.53;;;2.33;;
62353;SDS011;48391;49.184;2.418;2023-08-17T15:24:39;2.95;;;2.78;;
62353;SDS011;48391;49.184;2.418;2023-08-17T15:27:08;2.00;;;1.90;;
62353;SDS011;48391;49.184;2.418;2023-08-17T15:29:34;3.55;;;2.47;;
62353;SDS011;48391;49.184;2.418;2023-08-17T15:32:00;2.50;;;2.25;;
62353;SDS011;48391;49.184;2.418;2023-08-17T15:34:26;2.53;;;2.42;;
62353;SDS011;48391;49.184;2.418;2023-08-17T15:36:52;2.63;;;2.40;;
62353;SDS011;48391;49.184;2.418;2023-08-17T15:39:18;2.95;;;2.75;;
62353;SDS011;48391;49.184;2.418;2023-08-17T15:41:44;2.00;;;1.80;;
62353;SDS011;48391;49.184;2.418;2023-08-17T15:44:10;2.22;;;2.13;;
62353;SDS011;48391;49.184;2.418;2023-08-17T15:46:36;2.00;;;1.90;;
62353;SDS011;48391;49.184;2.418;2023-08-17T15:49:02;2.25;;;1.95;;
62353;SDS011;48391;49.184;2.418;2023-08-17T15:51:28;2.05;;;1.85;;
62353;SDS011;48391;49.184;2.418;2023-08-17T15:53:55;2.65;;;2.45;;
62353;SDS011;48391;49.184;2.418;2023-08-17T15:56:21;2.60;;;2.40;;
62353;SDS011;48391;49.184;2.418;2023-08-17T15:58:47;2.75;;;2.55;;
62353;SDS011;48391;49.184;2.418;2023-08-17T16:01:13;2.15;;;2.05;;
62353;SDS011;48391;49.184;2.418;2023-08-17T16:03:39;2.13;;;1.95;;
62353;SDS011;48391;49.184;2.418;2023-08-17T16:06:06;1.92;;;1.83;;
62353;SDS011;48391;49.184;2.418;2023-08-17T16:08:32;1.80;;;1.70;;
62353;SDS011;48391;49.184;2.418;2023-08-17T16:11:01;2.10;;;2.00;;
62353;SDS011;48391;49.184;2.418;2023-08-17T16:13:27;2.60;;;2.50;;
62353;SDS011;48391;49.184;2.418;2023-08-17T16:15:54;2.45;;;2.35;;
62353;SDS011;48391;49.184;2.418;2023-08-17T16:18:20;2.47;;;2.28;;
62353;SDS011;48391;49.184;2.418;2023-08-17T16:20:46;1.92;;;1.77;;
62353;SDS011;48391;49.184;2.418;2023-08-17T16:23:12;2.13;;;2.03;;
62353;SDS011;48391;49.184;2.418;2023-08-17T16:25:40;2.42;;;2.22;;
62353;SDS011;48391;49.184;2.418;2023-08-17T16:28:06;2.28;;;2.17;;
62353;SDS011;48391;49.184;2.418;2023-08-17T16:30:32;2.00;;;1.90;;
62353;SDS011;48391;49.184;2.418;2023-08-17T16:33:00;2.60;;;2.50;;
62353;SDS011;48391;49.184;2.418;2023-08-17T16:35:26;2.85;;;2.65;;
62353;SDS011;48391;49.184;2.418;2023-08-17T16:37:52;2.90;;;2.70;;
62353;SDS011;48391;49.184;2.418;2023-08-17T16:40:18;2.40;;;2.30;;
62353;SDS011;48391;49.184;2.418;2023-08-17T16:42:45;2.90;;;2.70;;
62353;SDS011;48391;49.184;2.418;2023-08-17T16:45:12;2.17;;;2.08;;
62353;SDS011;48391;49.184;2.418;2023-08-17T16:47:40;2.88;;;2.67;;
62353;SDS011;48391;49.184;2.418;2023-08-17T16:50:06;2.20;;;2.10;;
62353;SDS011;48391;49.184;2.418;2023-08-17T16:52:32;3.67;;;3.20;;
62353;SDS011;48391;49.184;2.418;2023-08-17T16:54:58;3.28;;;3.08;;
62353;SDS011;48391;49.184;2.418;2023-08-17T16:57:24;2.78;;;2.58;;
62353;SDS011;48391;49.184;2.418;2023-08-17T16:59:50;2.05;;;1.95;;
62353;SDS011;48391;49.184;2.418;2023-08-17T17:02:16;2.35;;;2.20;;
62353;SDS011;48391;49.184;2.418;2023-08-17T17:04:42;2.22;;;2.13;;
62353;SDS011;48391;49.184;2.418;2023-08-17T17:07:08;2.53;;;2.42;;
62353;SDS011;48391;49.184;2.418;2023-08-17T17:09:34;3.08;;;2.85;;
62353;SDS011;48391;49.184;2.418;2023-08-17T17:12:01;2.75;;;2.55;;
62353;SDS011;48391;49.184;2.418;2023-08-17T17:14:27;3.22;;;2.97;;
62353;SDS011;48391;49.184;2.418;2023-08-17T17:16:53;3.42;;;3.00;;
62353;SDS011;48391;49.184;2.418;2023-08-17T17:19:19;2.88;;;2.67;;
62353;SDS011;48391;49.184;2.418;2023-08-17T17:21:45;2.80;;;2.63;;
62353;SDS011;48391;49.184;2.418;2023-08-17T17:24:11;2.15;;;2.00;;
62353;SDS011;48391;49.184;2.418;2023-08-17T17:26:37;2.45;;;2.30;;
62353;SDS011;48391;49.184;2.418;2023-08-17T17:29:04;2.45;;;2.30;;
62353;SDS011;48391;49.184;2.418;2023-08-17T17:31:31;2.65;;;2.45;;
62353;SDS011;48391;49.184;2.418;2023-08-17T17:33:57;1.90;;;1.80;;
62353;SDS011;48391;49.184;2.418;2023-08-17T17:36:24;2.17;;;1.98;;
62353;SDS011;48391;49.184;2.418;2023-08-17T17:38:51;2.22;;;2.13;;
62353;SDS011;48391;49.184;2.418;2023-08-17T17:43:46;1.73;;;1.63;;
62353;SDS011;48391;49.184;2.418;2023-08-17T17:46:13;2.50;;;2.35;;
62353;SDS011;48391;49.184;2.418;2023-08-17T17:48:39;2.20;;;2.10;;
62353;SDS011;48391;49.184;2.418;2023-08-17T17:51:08;1.83;;;1.73;;
62353;SDS011;48391;49.184;2.418;2023-08-17T17:53:34;1.77;;;1.67;;
62353;SDS011;48391;49.184;2.418;2023-08-17T17:56:00;1.75;;;1.65;;
62353;SDS011;48391;49.184;2.418;2023-08-17T17:58:26;1.92;;;1.83;;
62353;SDS011;48391;49.184;2.418;2023-08-17T18:00:52;2.03;;;1.92;;
62353;SDS011;48391;49.184;2.418;2023-08-17T18:03:18;2.05;;;1.85;;
62353;SDS011;48391;49.184;2.418;2023-08-17T18:05:45;1.85;;;1.75;;
62353;SDS011;48391;49.184;2.418;2023-08-17T18:08:11;1.52;;;1.42;;
62353;SDS011;48391;49.184;2.418;2023-08-17T18:10:41;1.63;;;1.52;;
62353;SDS011;48391;49.184;2.418;2023-08-17T18:13:07;1.85;;;1.75;;
62353;SDS011;48391;49.184;2.418;2023-08-17T18:15:34;2.10;;;2.00;;
62353;SDS011;48391;49.184;2.418;2023-08-17T18:18:03;1.55;;;1.50;;
62353;SDS011;48391;49.184;2.418;2023-08-17T18:20:29;2.35;;;1.38;;
62353;SDS011;48391;49.184;2.418;2023-08-17T18:22:55;2.00;;;1.85;;
62353;SDS011;48391;49.184;2.418;2023-08-17T18:25:21;1.90;;;1.80;;
62353;SDS011;48391;49.184;2.418;2023-08-17T18:27:47;1.75;;;1.65;;
62353;SDS011;48391;49.184;2.418;2023-08-17T18:30:14;1.85;;;1.75;;
62353;SDS011;48391;49.184;2.418;2023-08-17T18:32:40;2.33;;;2.10;;
62353;SDS011;48391;49.184;2.418;2023-08-17T18:35:07;2.05;;;1.95;;
62353;SDS011;48391;49.184;2.418;2023-08-17T18:37:33;1.73;;;1.63;;
62353;SDS011;48391;49.184;2.418;2023-08-17T18:39:59;1.58;;;1.48;;
62353;SDS011;48391;49.184;2.418;2023-08-17T18:42:25;1.63;;;1.52;;
62353;SDS011;48391;49.184;2.418;2023-08-17T18:44:54;1.90;;;1.80;;
62353;SDS011;48391;49.184;2.418;2023-08-17T18:47:21;1.60;;;1.50;;
62353;SDS011;48391;49.184;2.418;2023-08-17T18:49:47;1.85;;;1.75;;
62353;SDS011;48391;49.184;2.418;2023-08-17T18:52:13;1.38;;;1.38;;
62353;SDS011;48391;49.184;2.418;2023-08-17T18:54:44;1.27;;;1.27;;
62353;SDS011;48391;49.184;2.418;2023-08-17T18:57:22;1.52;;;1.42;;
62353;SDS011;48391;49.184;2.418;2023-08-17T18:59:48;0.98;;;0.98;;
62353;SDS011;48391;49.184;2.418;2023-08-17T19:02:14;1.90;;;1.80;;
62353;SDS011;48391;49.184;2.418;2023-08-17T19:04:40;1.17;;;1.17;;
62353;SDS011;48391;49.184;2.418;2023-08-17T19:07:06;1.73;;;1.63;;
62353;SDS011;48391;49.184;2.418;2023-08-17T19:09:32;1.27;;;1.27;;
62353;SDS011;48391;49.184;2.418;2023-08-17T19:11:59;2.20;;;2.10;;
62353;SDS011;48391;49.184;2.418;2023-08-17T19:14:25;1.90;;;1.80;;
62353;SDS011;48391;49.184;2.418;2023-08-17T19:16:51;1.92;;;1.83;;
62353;SDS011;48391;49.184;2.418;2023-08-17T19:19:17;1.70;;;1.60;;
62353;SDS011;48391;49.184;2.418;2023-08-17T19:21:43;3.47;;;2.22;;
62353;SDS011;48391;49.184;2.418;2023-08-17T19:24:09;1.98;;;1.85;;
62353;SDS011;48391;49.184;2.418;2023-08-17T19:26:35;1.90;;;1.80;;
62353;SDS011;48391;49.184;2.418;2023-08-17T19:29:01;1.83;;;1.73;;
62353;SDS011;48391;49.184;2.418;2023-08-17T19:31:27;1.70;;;1.60;;
62353;SDS011;48391;49.184;2.418;2023-08-17T19:33:53;1.60;;;1.50;;
62353;SDS011;48391;49.184;2.418;2023-08-17T19:36:19;1.88;;;1.77;;
62353;SDS011;48391;49.184;2.418;2023-08-17T19:38:45;2.20;;;2.10;;
62353;SDS011;48391;49.184;2.418;2023-08-17T19:43:41;1.88;;;1.77;;
62353;SDS011;48391;49.184;2.418;2023-08-17T19:46:07;1.75;;;1.65;;
62353;SDS011;48391;49.184;2.418;2023-08-17T19:48:33;1.60;;;1.50;;
62353;SDS011;48391;49.184;2.418;2023-08-17T19:50:59;2.80;;;2.60;;
62353;SDS011;48391;49.184;2.418;2023-08-17T19:53:28;2.03;;;1.92;;
62353;SDS011;48391;49.184;2.418;2023-08-17T19:55:57;1.70;;;1.60;;
62353;SDS011;48391;49.184;2.418;2023-08-17T19:58:24;1.50;;;1.40;;
62353;SDS011;48391;49.184;2.418;2023-08-17T20:00:50;1.90;;;1.80;;
62353;SDS011;48391;49.184;2.418;2023-08-17T20:03:16;1.65;;;1.55;;
62353;SDS011;48391;49.184;2.418;2023-08-17T20:05:42;1.98;;;1.88;;
62353;SDS011;48391;49.184;2.418;2023-08-17T20:08:08;1.85;;;1.75;;
62353;SDS011;48391;49.184;2.418;2023-08-17T20:10:34;1.80;;;1.70;;
62353;SDS011;48391;49.184;2.418;2023-08-17T20:13:00;1.90;;;1.77;;
62353;SDS011;48391;49.184;2.418;2023-08-17T20:15:26;2.15;;;2.03;;
62353;SDS011;48391;49.184;2.418;2023-08-17T20:17:52;2.22;;;2.13;;
62353;SDS011;48391;49.184;2.418;2023-08-17T20:20:18;2.50;;;2.30;;
62353;SDS011;48391;49.184;2.418;2023-08-17T20:22:44;2.15;;;1.92;;
62353;SDS011;48391;49.184;2.418;2023-08-17T20:25:12;2.58;;;2.38;;
62353;SDS011;48391;49.184;2.418;2023-08-17T20:27:40;3.15;;;2.95;;
62353;SDS011;48391;49.184;2.418;2023-08-17T20:30:07;2.47;;;2.27;;